createdAt,value
2023-04-09T00:00:20.862Z,4.11
2023-04-09T00:02:47.564Z,4.06
2023-04-09T00:05:14.414Z,3.78
2023-04-09T00:07:43.210Z,4.52
2023-04-09T00:10:11.332Z,4.52
2023-04-09T00:12:38.126Z,4.56
2023-04-09T00:15:05.417Z,4.56
2023-04-09T00:17:32.232Z,4.61
2023-04-09T00:19:59.033Z,4.27
2023-04-09T00:22:25.794Z,4.24
2023-04-09T00:24:52.497Z,3.92
2023-04-09T00:27:19.379Z,3.89
2023-04-09T00:29:46.144Z,3.79
2023-04-09T00:32:13.348Z,4.00
2023-04-09T00:34:40.369Z,3.93
2023-04-09T00:37:07.085Z,3.92
2023-04-09T00:39:33.715Z,3.65
2023-04-09T00:42:02.948Z,3.99
2023-04-09T00:44:30.435Z,3.80
2023-04-09T00:46:59.873Z,3.89
2023-04-09T00:49:27.177Z,3.91
2023-04-09T00:51:54.152Z,3.99
2023-04-09T00:54:21.063Z,3.81
2023-04-09T00:56:47.843Z,3.98
2023-04-09T00:59:15.431Z,4.00
2023-04-09T01:01:42.134Z,3.73
2023-04-09T01:04:08.898Z,3.84
2023-04-09T01:06:52.672Z,3.87
2023-04-09T01:09:33.654Z,3.78
2023-04-09T01:12:12.287Z,3.61
2023-04-09T01:14:48.021Z,3.51
2023-04-09T01:17:38.391Z,3.33
2023-04-09T01:20:08.694Z,3.31
2023-04-09T01:23:09.495Z,3.31
2023-04-09T01:25:51.569Z,3.33
2023-04-09T01:28:27.347Z,2.73
2023-04-09T01:31:04.143Z,3.03
2023-04-09T01:33:32.330Z,2.86
2023-04-09T01:36:01.056Z,3.02
2023-04-09T01:38:27.840Z,2.74
2023-04-09T01:40:56.520Z,2.92
2023-04-09T01:43:24.899Z,2.78
2023-04-09T01:45:51.987Z,2.45
2023-04-09T01:48:19.784Z,2.47
2023-04-09T01:50:47.618Z,2.36
2023-04-09T01:53:14.972Z,2.35
2023-04-09T01:55:41.630Z,2.34
2023-04-09T01:58:08.277Z,2.03
2023-04-09T02:00:41.228Z,2.02
2023-04-09T02:03:17.456Z,2.16
2023-04-09T02:06:10.452Z,2.04
2023-04-09T02:08:37.892Z,1.76
2023-04-09T02:11:06.842Z,1.96
2023-04-09T02:13:34.942Z,1.72
2023-04-09T02:16:03.665Z,1.70
2023-04-09T02:18:31.006Z,1.65
2023-04-09T02:20:58.661Z,1.50
2023-04-09T02:23:27.540Z,1.63
2023-04-09T02:25:54.472Z,1.41
2023-04-09T02:28:21.173Z,1.47
2023-04-09T02:30:47.867Z,1.37
2023-04-09T02:33:14.562Z,1.64
2023-04-09T02:35:41.579Z,1.64
2023-04-09T02:38:13.686Z,1.69
2023-04-09T02:40:41.478Z,1.69
2023-04-09T02:43:09.780Z,1.74
2023-04-09T02:45:36.581Z,1.62
2023-04-09T02:48:03.766Z,1.52
2023-04-09T02:50:37.674Z,1.48
2023-04-09T02:53:04.317Z,1.31
2023-04-09T02:55:31.164Z,1.23
2023-04-09T02:57:57.870Z,1.23
2023-04-09T03:00:24.540Z,0.95
2023-04-09T03:02:51.570Z,1.01
2023-04-09T03:05:18.363Z,0.96
2023-04-09T03:07:45.056Z,0.79
2023-04-09T03:10:11.819Z,0.95
2023-04-09T03:12:38.454Z,1.03
2023-04-09T03:15:05.897Z,1.04
2023-04-09T03:17:32.701Z,0.94
2023-04-09T03:19:59.520Z,1.00
2023-04-09T03:22:38.125Z,1.05
2023-04-09T03:25:10.992Z,0.89
2023-04-09T03:27:37.778Z,1.10
2023-04-09T03:30:04.999Z,1.06
2023-04-09T03:32:40.751Z,0.97
2023-04-09T03:35:09.048Z,0.63
2023-04-09T03:37:35.801Z,0.51
2023-04-09T03:40:03.151Z,0.72
2023-04-09T03:42:31.282Z,0.52
2023-04-09T03:44:57.950Z,0.57
2023-04-09T03:47:33.302Z,0.67
2023-04-09T03:50:00.483Z,0.69
2023-04-09T03:52:32.735Z,0.39
2023-04-09T03:55:06.518Z,0.46
2023-04-09T03:57:33.139Z,0.26
2023-04-09T04:00:00.282Z,0.30
2023-04-09T04:02:30.402Z,0.02
2023-04-09T04:05:02.187Z,0.15
2023-04-09T04:07:33.881Z,0.18
2023-04-09T04:10:09.610Z,0.32
2023-04-09T04:12:36.384Z,0.05
2023-04-09T04:15:07.595Z,0.15
2023-04-09T04:17:42.861Z,0.28
2023-04-09T04:20:27.274Z,0.40
2023-04-09T04:23:01.794Z,0.22
2023-04-09T04:25:29.077Z,0.11
2023-04-09T04:27:56.378Z,0.17
2023-04-09T04:30:28.244Z,0.22
2023-04-09T04:33:00.300Z,-0.15
2023-04-09T04:35:30.386Z,0.22
2023-04-09T04:38:01.520Z,0.29
2023-04-09T04:40:28.977Z,0.05
2023-04-09T04:43:00.148Z,-0.47
2023-04-09T04:45:27.202Z,0.18
2023-04-09T04:47:59.548Z,-0.03
2023-04-09T04:50:26.219Z,-0.34
2023-04-09T04:53:03.517Z,-0.40
2023-04-09T04:55:39.631Z,-0.74
2023-04-09T04:58:08.031Z,-0.51
2023-04-09T05:00:42.922Z,-0.37
2023-04-09T05:03:09.688Z,-0.03
2023-04-09T05:05:59.483Z,-0.34
2023-04-09T05:08:30.965Z,-0.37
2023-04-09T05:10:58.155Z,0.02
2023-04-09T05:13:32.256Z,0.05
2023-04-09T05:15:59.699Z,-0.18
2023-04-09T05:18:26.767Z,-0.46
2023-04-09T05:20:53.419Z,-0.03
2023-04-09T05:23:20.309Z,-0.08
2023-04-09T05:25:50.179Z,-0.03
2023-04-09T05:28:25.009Z,-0.17
2023-04-09T05:31:02.374Z,-0.34
2023-04-09T05:33:35.362Z,-0.01
2023-04-09T05:36:02.105Z,0.01
2023-04-09T05:38:28.780Z,-0.13
2023-04-09T05:40:58.262Z,-0.10
2023-04-09T05:43:25.440Z,0.14
2023-04-09T05:45:52.239Z,0.49
2023-04-09T05:48:19.711Z,0.50
2023-04-09T05:50:55.553Z,0.77
2023-04-09T05:53:25.344Z,0.83
2023-04-09T05:55:52.093Z,1.02
2023-04-09T05:58:22.761Z,0.49
2023-04-09T06:00:51.694Z,0.97
2023-04-09T06:03:18.953Z,1.38
2023-04-09T06:05:46.628Z,1.40
2023-04-09T06:08:14.101Z,1.62
2023-04-09T06:10:41.624Z,1.22
2023-04-09T06:13:09.710Z,1.60
2023-04-09T06:15:38.297Z,1.51
2023-04-09T06:18:05.094Z,1.59
2023-04-09T06:20:31.749Z,1.72
2023-04-09T06:22:58.519Z,1.62
2023-04-09T06:25:25.307Z,2.05
2023-04-09T06:27:52.171Z,2.39
2023-04-09T06:30:18.788Z,2.37
2023-04-09T06:32:54.590Z,2.72
2023-04-09T06:35:21.897Z,2.86
2023-04-09T06:37:48.635Z,3.33
2023-04-09T06:40:15.530Z,3.53
2023-04-09T06:42:42.141Z,3.26
2023-04-09T06:45:20.000Z,3.62
2023-04-09T06:47:46.821Z,3.88
2023-04-09T06:50:13.550Z,4.10
2023-04-09T06:52:40.488Z,4.35
2023-04-09T06:55:07.486Z,4.69
2023-04-09T06:57:34.090Z,4.57
2023-04-09T07:00:00.980Z,4.15
2023-04-09T07:02:28.038Z,4.38
2023-04-09T07:04:54.984Z,4.83
2023-04-09T07:07:23.781Z,5.37
2023-04-09T07:09:53.563Z,5.52
2023-04-09T07:12:35.131Z,5.93
2023-04-09T07:15:03.917Z,5.38
2023-04-09T07:17:34.600Z,5.29
2023-04-09T07:20:01.513Z,6.03
2023-04-09T07:22:30.680Z,6.04
2023-04-09T07:24:57.606Z,5.81
2023-04-09T07:27:27.978Z,6.10
2023-04-09T07:29:56.802Z,5.31
2023-04-09T07:32:24.646Z,5.29
2023-04-09T07:34:52.934Z,5.72
2023-04-09T07:37:20.791Z,6.44
2023-04-09T07:39:48.144Z,6.31
2023-04-09T07:42:20.135Z,6.40
2023-04-09T07:44:47.583Z,6.59
2023-04-09T07:47:14.856Z,6.60
2023-04-09T07:49:41.604Z,6.63
2023-04-09T07:52:08.319Z,7.11
2023-04-09T07:54:35.499Z,7.01
2023-04-09T07:57:02.749Z,7.60
2023-04-09T07:59:29.711Z,7.71
2023-04-09T08:01:56.878Z,7.87
2023-04-09T08:04:23.738Z,8.15
2023-04-09T08:06:51.229Z,8.18
2023-04-09T08:09:18.563Z,8.27
2023-04-09T08:11:48.314Z,8.74
2023-04-09T08:14:16.507Z,8.57
2023-04-09T08:16:45.725Z,8.71
2023-04-09T08:19:13.515Z,8.78
2023-04-09T08:21:44.206Z,9.32
2023-04-09T08:24:11.982Z,8.67
2023-04-09T08:26:42.554Z,9.00
2023-04-09T08:29:11.493Z,9.34
2023-04-09T08:31:38.293Z,9.51
2023-04-09T08:34:05.916Z,9.33
2023-04-09T08:36:34.441Z,8.99
2023-04-09T08:39:01.794Z,9.40
2023-04-09T08:41:29.459Z,9.29
2023-04-09T08:43:58.854Z,8.98
2023-04-09T08:46:27.200Z,8.97
2023-04-09T08:48:54.362Z,8.69
2023-04-09T08:51:24.984Z,8.96
2023-04-09T08:54:01.388Z,9.10
2023-04-09T08:56:30.466Z,9.25
2023-04-09T08:58:57.683Z,9.56
2023-04-09T09:01:27.136Z,9.68
2023-04-09T09:03:54.361Z,9.88
2023-04-09T09:06:22.539Z,9.29
2023-04-09T09:09:12.121Z,9.40
2023-04-09T09:11:46.806Z,9.90
2023-04-09T09:14:16.121Z,9.93
2023-04-09T09:16:56.651Z,9.58
2023-04-09T09:19:26.547Z,9.33
2023-04-09T09:22:00.563Z,9.02
2023-04-09T09:24:27.755Z,8.86
2023-04-09T09:26:54.793Z,8.90
2023-04-09T09:29:21.795Z,8.57
2023-04-09T09:31:52.973Z,8.93
2023-04-09T09:34:21.080Z,8.69
2023-04-09T09:36:48.357Z,8.96
2023-04-09T09:39:17.415Z,9.16
2023-04-09T09:41:46.020Z,9.18
2023-04-09T09:44:30.090Z,9.28
2023-04-09T09:46:58.757Z,9.06
2023-04-09T09:49:25.422Z,9.54
2023-04-09T09:51:54.372Z,9.12
2023-04-09T09:54:25.474Z,8.84
2023-04-09T09:56:55.958Z,9.42
2023-04-09T09:59:27.056Z,9.36
2023-04-09T10:02:01.284Z,9.33
2023-04-09T10:04:30.304Z,9.61
2023-04-09T10:06:57.937Z,9.31
2023-04-09T10:09:28.036Z,9.36
2023-04-09T10:11:56.013Z,9.78
2023-04-09T10:14:23.168Z,9.25
2023-04-09T10:16:49.912Z,9.64
2023-04-09T10:19:17.134Z,9.63
2023-04-09T10:22:16.108Z,9.97
2023-04-09T10:24:43.255Z,9.94
2023-04-09T10:27:16.508Z,10.08
2023-04-09T10:29:49.051Z,10.26
2023-04-09T10:32:25.114Z,9.52
2023-04-09T10:34:52.347Z,9.86
2023-04-09T10:37:24.315Z,10.20
2023-04-09T10:39:52.589Z,10.16
2023-04-09T10:42:24.897Z,10.22
2023-04-09T10:45:11.660Z,10.78
2023-04-09T10:47:40.063Z,10.91
2023-04-09T10:50:19.925Z,10.47
2023-04-09T10:52:47.303Z,10.76
2023-04-09T10:55:34.474Z,10.52
2023-04-09T10:58:01.155Z,10.54
2023-04-09T11:00:27.848Z,10.76
2023-04-09T11:03:10.701Z,11.04
2023-04-09T11:05:40.351Z,10.70
2023-04-09T11:08:09.890Z,11.14
2023-04-09T11:10:38.703Z,10.70
2023-04-09T11:13:05.913Z,10.52
2023-04-09T11:15:35.068Z,11.03
2023-04-09T11:18:02.386Z,11.14
2023-04-09T11:20:31.059Z,11.08
2023-04-09T11:22:59.887Z,11.35
2023-04-09T11:25:28.369Z,11.57
2023-04-09T11:27:55.677Z,11.69
2023-04-09T11:30:22.325Z,11.96
2023-04-09T11:32:50.023Z,12.21
2023-04-09T11:35:19.088Z,11.15
2023-04-09T11:37:46.612Z,11.87
2023-04-09T11:40:18.233Z,11.53
2023-04-09T11:42:45.932Z,12.16
2023-04-09T11:45:13.394Z,12.14
2023-04-09T11:47:41.891Z,11.95
2023-04-09T11:50:10.395Z,11.91
2023-04-09T11:52:37.441Z,12.41
2023-04-09T11:55:05.544Z,12.57
2023-04-09T11:57:46.509Z,13.25
2023-04-09T12:00:17.627Z,12.94
2023-04-09T12:02:47.681Z,13.55
2023-04-09T12:05:32.535Z,13.35
2023-04-09T12:08:05.142Z,13.75
2023-04-09T12:10:34.203Z,13.60
2023-04-09T12:13:06.592Z,12.73
2023-04-09T12:15:36.060Z,13.27
2023-04-09T12:18:03.710Z,13.67
2023-04-09T12:20:31.607Z,14.18
2023-04-09T12:23:03.698Z,13.26
2023-04-09T12:25:38.400Z,11.94
2023-04-09T12:28:06.637Z,11.37
2023-04-09T12:30:33.862Z,10.99
2023-04-09T12:33:01.090Z,11.00
2023-04-09T12:35:28.319Z,10.74
2023-04-09T12:37:55.420Z,10.45
2023-04-09T12:40:22.779Z,10.43
2023-04-09T12:42:49.468Z,10.60
2023-04-09T12:45:18.133Z,10.51
2023-04-09T12:47:45.559Z,12.00
2023-04-09T12:50:13.160Z,13.08
2023-04-09T12:52:40.140Z,13.88
2023-04-09T12:55:07.465Z,14.20
2023-04-09T12:57:34.508Z,14.04
2023-04-09T13:00:01.161Z,13.95
2023-04-09T13:02:27.917Z,14.18
2023-04-09T13:04:54.698Z,14.55
2023-04-09T13:07:21.421Z,14.72
2023-04-09T13:09:50.626Z,14.72
2023-04-09T13:12:17.502Z,14.64
2023-04-09T13:14:46.672Z,14.94
2023-04-09T13:17:13.553Z,14.40
2023-04-09T13:19:42.609Z,13.37
2023-04-09T13:22:09.653Z,12.44
2023-04-09T13:24:36.546Z,12.68
2023-04-09T13:27:09.471Z,12.52
2023-04-09T13:29:36.309Z,12.13
2023-04-09T13:32:07.179Z,12.22
2023-04-09T13:34:36.945Z,12.01
2023-04-09T13:37:03.741Z,12.14
2023-04-09T13:39:30.969Z,11.78
2023-04-09T13:41:57.696Z,12.07
2023-04-09T13:44:27.624Z,11.76
2023-04-09T13:46:54.260Z,12.41
2023-04-09T13:49:21.172Z,12.52
2023-04-09T13:51:49.012Z,13.42
2023-04-09T13:54:15.652Z,15.07
2023-04-09T13:56:42.510Z,13.74
2023-04-09T13:59:09.112Z,13.30
2023-04-09T14:01:36.313Z,12.36
2023-04-09T14:04:03.323Z,11.59
2023-04-09T14:06:31.221Z,10.97
2023-04-09T14:08:57.872Z,10.51
2023-04-09T14:11:24.518Z,10.49
2023-04-09T14:13:51.398Z,10.49
2023-04-09T14:16:19.748Z,10.52
2023-04-09T14:18:46.452Z,10.59
2023-04-09T14:21:13.391Z,10.50
2023-04-09T14:23:40.479Z,10.47
2023-04-09T14:26:07.427Z,10.43
2023-04-09T14:28:34.098Z,10.44
2023-04-09T14:31:01.197Z,10.63
2023-04-09T14:33:28.023Z,10.47
2023-04-09T14:35:54.942Z,10.18
2023-04-09T14:38:23.966Z,10.23
2023-04-09T14:40:51.458Z,10.33
2023-04-09T14:43:18.413Z,10.52
2023-04-09T14:45:45.104Z,10.68
2023-04-09T14:48:11.789Z,10.62
2023-04-09T14:50:38.556Z,10.68
2023-04-09T14:53:05.214Z,10.54
2023-04-09T14:55:31.868Z,10.71
2023-04-09T14:57:59.636Z,10.74
2023-04-09T15:00:26.600Z,10.77
2023-04-09T15:02:54.435Z,10.50
2023-04-09T15:05:21.390Z,10.79
2023-04-09T15:07:48.093Z,10.86
2023-04-09T15:10:15.454Z,11.07
2023-04-09T15:12:42.261Z,11.03
2023-04-09T15:15:09.462Z,11.25
2023-04-09T15:17:36.562Z,12.25
2023-04-09T15:20:04.178Z,12.40
2023-04-09T15:22:30.916Z,11.46
2023-04-09T15:24:57.653Z,12.30
2023-04-09T15:27:24.497Z,13.09
2023-04-09T15:29:51.940Z,13.77
2023-04-09T15:32:18.837Z,13.68
2023-04-09T15:34:45.470Z,12.80
2023-04-09T15:37:12.160Z,11.58
2023-04-09T15:39:38.867Z,11.68
2023-04-09T15:42:06.775Z,10.74
2023-04-09T15:44:36.226Z,10.24
2023-04-09T15:47:03.023Z,10.20
2023-04-09T15:49:29.945Z,9.68
2023-04-09T15:51:56.563Z,9.08
2023-04-09T15:54:23.274Z,9.24
2023-04-09T15:56:49.876Z,9.43
2023-04-09T15:59:16.897Z,9.86
2023-04-09T16:01:44.286Z,10.12
2023-04-09T16:04:11.124Z,10.03
2023-04-09T16:06:39.401Z,9.61
2023-04-09T16:09:06.157Z,9.46
2023-04-09T16:11:35.868Z,9.51
2023-04-09T16:14:02.683Z,9.67
2023-04-09T16:16:29.664Z,9.83
2023-04-09T16:18:56.411Z,9.60
2023-04-09T16:21:23.078Z,9.26
2023-04-09T16:23:49.782Z,8.99
2023-04-09T16:26:16.534Z,8.57
2023-04-09T16:28:43.211Z,8.68
2023-04-09T16:31:09.915Z,8.85
2023-04-09T16:33:36.567Z,8.82
2023-04-09T16:36:03.382Z,9.14
2023-04-09T16:38:31.250Z,9.10
2023-04-09T16:40:58.089Z,9.07
2023-04-09T16:43:25.503Z,9.26
2023-04-09T16:45:52.332Z,8.84
2023-04-09T16:48:19.339Z,9.23
2023-04-09T16:50:45.976Z,9.28
2023-04-09T16:53:12.718Z,9.29
2023-04-09T16:55:39.593Z,8.79
2023-04-09T16:58:06.235Z,8.58
2023-04-09T17:00:32.948Z,8.36
2023-04-09T17:03:02.218Z,8.29
2023-04-09T17:05:29.554Z,8.32
2023-04-09T17:07:56.318Z,8.54
2023-04-09T17:10:23.021Z,8.16
2023-04-09T17:12:50.734Z,8.34
2023-04-09T17:15:18.937Z,7.98
2023-04-09T17:17:47.852Z,8.08
2023-04-09T17:20:14.589Z,8.13
2023-04-09T17:22:41.245Z,8.27
2023-04-09T17:25:08.688Z,8.02
2023-04-09T17:27:35.943Z,8.39
2023-04-09T17:30:05.601Z,8.04
2023-04-09T17:32:32.295Z,7.87
2023-04-09T17:34:59.672Z,7.73
2023-04-09T17:37:28.513Z,7.78
2023-04-09T17:39:55.237Z,7.70
2023-04-09T17:42:23.494Z,7.90
2023-04-09T17:44:50.541Z,7.74
2023-04-09T17:47:17.336Z,7.55
2023-04-09T17:49:44.395Z,7.99
2023-04-09T17:52:11.097Z,7.72
2023-04-09T17:54:38.726Z,7.55
2023-04-09T17:57:07.914Z,7.70
2023-04-09T17:59:34.695Z,7.65
2023-04-09T18:02:02.364Z,7.54
2023-04-09T18:04:29.590Z,7.69
2023-04-09T18:06:56.611Z,7.49
2023-04-09T18:09:23.366Z,7.50
2023-04-09T18:11:54.965Z,7.41
2023-04-09T18:14:22.902Z,7.58
2023-04-09T18:16:49.751Z,7.41
2023-04-09T18:19:16.599Z,7.28
2023-04-09T18:21:43.291Z,7.38
2023-04-09T18:24:09.920Z,7.45
2023-04-09T18:26:36.721Z,7.32
2023-04-09T18:29:03.614Z,7.24
2023-04-09T18:31:30.392Z,7.16
2023-04-09T18:33:57.259Z,7.25
2023-04-09T18:36:23.951Z,7.14
2023-04-09T18:38:50.655Z,7.03
2023-04-09T18:41:27.243Z,6.97
2023-04-09T18:43:54.290Z,6.80
2023-04-09T18:46:21.057Z,6.86
2023-04-09T18:48:47.716Z,6.81
2023-04-09T18:51:14.771Z,6.41
2023-04-09T18:53:42.160Z,6.31
2023-04-09T18:56:09.369Z,6.18
2023-04-09T18:58:36.418Z,6.37
2023-04-09T19:01:12.785Z,6.47
2023-04-09T19:03:40.433Z,6.40
2023-04-09T19:06:15.079Z,6.53
2023-04-09T19:08:41.976Z,6.45
2023-04-09T19:11:08.807Z,6.13
2023-04-09T19:13:36.833Z,6.37
2023-04-09T19:16:04.350Z,6.35
2023-04-09T19:18:31.992Z,6.42
2023-04-09T19:20:58.604Z,6.37
2023-04-09T19:23:26.260Z,6.49
2023-04-09T19:25:55.263Z,6.51
2023-04-09T19:28:23.059Z,6.44
2023-04-09T19:30:53.721Z,6.16
2023-04-09T19:33:24.176Z,6.36
2023-04-09T19:35:52.038Z,6.47
2023-04-09T19:38:19.552Z,6.79
2023-04-09T19:40:47.161Z,6.66
2023-04-09T19:43:17.289Z,6.47
2023-04-09T19:45:44.350Z,6.40
2023-04-09T19:48:12.017Z,6.00
2023-04-09T19:50:41.030Z,5.91
2023-04-09T19:53:07.861Z,5.88
2023-04-09T19:55:35.055Z,5.92
2023-04-09T19:58:02.153Z,6.08
2023-04-09T20:00:29.222Z,6.04
2023-04-09T20:02:57.209Z,6.06
2023-04-09T20:05:24.593Z,6.21
2023-04-09T20:07:52.822Z,5.95
2023-04-09T20:10:19.900Z,5.66
2023-04-09T20:12:48.378Z,5.69
2023-04-09T20:15:15.779Z,5.16
2023-04-09T20:17:42.748Z,4.99
2023-04-09T20:20:09.839Z,5.32
2023-04-09T20:22:36.664Z,5.13
2023-04-09T20:25:23.585Z,5.50
2023-04-09T20:27:52.693Z,5.09
2023-04-09T20:30:19.783Z,5.09
2023-04-09T20:32:49.792Z,5.52
2023-04-09T20:35:18.803Z,5.10
2023-04-09T20:37:54.923Z,5.14
2023-04-09T20:40:22.452Z,4.98
2023-04-09T20:42:59.309Z,5.53
2023-04-09T20:45:29.491Z,5.47
2023-04-09T20:47:57.178Z,5.48
2023-04-09T20:50:24.473Z,4.89
2023-04-09T20:53:05.496Z,4.86
2023-04-09T20:55:53.049Z,4.94
2023-04-09T20:58:19.942Z,4.55
2023-04-09T21:00:46.669Z,4.63
2023-04-09T21:03:14.363Z,4.56
2023-04-09T21:05:41.579Z,4.65
2023-04-09T21:08:08.338Z,4.30
2023-04-09T21:10:35.070Z,3.86
2023-04-09T21:13:08.840Z,4.40
2023-04-09T21:15:35.552Z,4.44
2023-04-09T21:18:02.624Z,4.33
2023-04-09T21:20:29.334Z,4.41
2023-04-09T21:22:56.219Z,4.25
2023-04-09T21:25:27.558Z,4.32
2023-04-09T21:27:54.337Z,4.13
2023-04-09T21:30:21.140Z,4.10
2023-04-09T21:32:47.864Z,3.70
2023-04-09T21:35:14.596Z,3.78
2023-04-09T21:37:41.334Z,3.67
2023-04-09T21:40:08.738Z,3.66
2023-04-09T21:42:35.581Z,3.56
2023-04-09T21:45:02.338Z,3.57
2023-04-09T21:47:29.020Z,3.65
2023-04-09T21:50:16.681Z,3.78
2023-04-09T21:52:45.363Z,3.98
2023-04-09T21:55:12.043Z,3.92
2023-04-09T21:57:38.674Z,3.94
2023-04-09T22:00:05.766Z,3.80
2023-04-09T22:02:34.122Z,3.88
2023-04-09T22:05:01.103Z,3.86
2023-04-09T22:07:27.907Z,3.75
2023-04-09T22:09:55.523Z,3.99
2023-04-09T22:12:22.253Z,3.92
2023-04-09T22:14:49.057Z,3.77
2023-04-09T22:17:15.973Z,3.60
2023-04-09T22:19:42.720Z,3.65
2023-04-09T22:22:14.968Z,3.62
2023-04-09T22:24:42.975Z,3.02
2023-04-09T22:27:09.708Z,2.74
2023-04-09T22:29:37.127Z,2.73
2023-04-09T22:32:04.065Z,2.17
2023-04-09T22:34:30.733Z,2.71
2023-04-09T22:36:57.757Z,2.78
2023-04-09T22:39:24.628Z,2.93
2023-04-09T22:41:52.120Z,3.00
2023-04-09T22:44:18.879Z,2.96
2023-04-09T22:46:46.323Z,3.13
2023-04-09T22:49:13.174Z,2.91
2023-04-09T22:51:41.740Z,2.76
2023-04-09T22:54:08.994Z,2.89
2023-04-09T22:56:36.699Z,2.94
2023-04-09T22:59:03.514Z,2.74
2023-04-09T23:01:31.560Z,2.78
2023-04-09T23:03:58.347Z,2.70
2023-04-09T23:06:25.906Z,2.96
2023-04-09T23:08:52.809Z,2.91
2023-04-09T23:11:19.773Z,2.90
2023-04-09T23:13:46.538Z,2.49
2023-04-09T23:16:13.628Z,2.17
2023-04-09T23:18:40.752Z,2.21
2023-04-09T23:21:08.362Z,2.40
2023-04-09T23:23:36.118Z,2.54
2023-04-09T23:26:03.573Z,2.61
2023-04-09T23:28:31.100Z,2.48
2023-04-09T23:30:58.071Z,2.22
2023-04-09T23:33:24.967Z,2.03
2023-04-09T23:35:51.777Z,2.30
2023-04-09T23:38:18.906Z,2.25
2023-04-09T23:40:47.395Z,2.37
2023-04-09T23:43:14.250Z,2.34
2023-04-09T23:45:41.206Z,2.28
2023-04-09T23:48:08.932Z,2.15
2023-04-09T23:50:42.191Z,2.30
2023-04-09T23:53:09.067Z,2.35
2023-04-09T23:55:40.772Z,1.91
2023-04-09T23:58:07.869Z,2.04
